createdAt,value
2023-05-18T00:01:14.545Z,73.18
2023-05-18T00:03:42.445Z,74.19
2023-05-18T00:06:10.102Z,73.72
2023-05-18T00:08:37.887Z,72.32
2023-05-18T00:11:05.879Z,72.29
2023-05-18T00:13:32.689Z,73.74
2023-05-18T00:16:00.135Z,72.54
2023-05-18T00:18:27.899Z,74.45
2023-05-18T00:21:00.500Z,73.27
2023-05-18T00:23:30.813Z,72.42
2023-05-18T00:25:59.126Z,73.63
2023-05-18T00:28:26.225Z,72.84
2023-05-18T00:30:53.789Z,72.93
2023-05-18T00:33:20.544Z,72.84
2023-05-18T00:35:47.196Z,73.31
2023-05-18T00:38:15.396Z,73.87
2023-05-18T00:40:42.437Z,73.38
2023-05-18T00:43:08.989Z,73.60
2023-05-18T00:45:36.019Z,73.94
2023-05-18T00:48:02.603Z,75.28
2023-05-18T00:50:29.181Z,73.21
2023-05-18T00:52:56.109Z,73.67
2023-05-18T00:55:22.662Z,73.67
2023-05-18T00:57:49.172Z,74.25
2023-05-18T01:00:16.118Z,73.45
2023-05-18T01:02:45.485Z,75.01
2023-05-18T01:05:13.259Z,73.26
2023-05-18T01:07:42.561Z,73.63
2023-05-18T01:10:11.008Z,72.51
2023-05-18T01:12:57.879Z,73.28
2023-05-18T01:15:32.902Z,73.91
2023-05-18T01:18:21.784Z,72.12
2023-05-18T01:21:31.468Z,72.42
2023-05-18T01:24:21.629Z,73.44
2023-05-18T01:26:50.525Z,73.54
2023-05-18T01:29:17.913Z,73.86
2023-05-18T01:31:44.612Z,72.20
2023-05-18T01:34:11.158Z,74.58
2023-05-18T01:36:37.621Z,72.77
2023-05-18T01:39:04.295Z,72.18
2023-05-18T01:41:36.289Z,74.15
2023-05-18T01:44:09.241Z,72.54
2023-05-18T01:46:47.882Z,73.71
2023-05-18T01:49:25.353Z,72.74
2023-05-18T01:51:53.978Z,72.26
2023-05-18T01:54:22.354Z,74.40
2023-05-18T01:56:50.817Z,73.98
2023-05-18T01:59:17.799Z,73.26
2023-05-18T02:01:45.220Z,73.53
2023-05-18T02:04:12.048Z,73.69
2023-05-18T02:06:38.560Z,73.13
2023-05-18T02:09:05.518Z,73.69
2023-05-18T02:11:32.131Z,73.85
2023-05-18T02:13:58.641Z,74.04
2023-05-18T02:16:25.190Z,73.91
2023-05-18T02:18:53.107Z,72.45
2023-05-18T02:21:19.636Z,73.06
2023-05-18T02:23:46.073Z,72.50
2023-05-18T02:26:12.536Z,72.33
2023-05-18T02:28:39.925Z,74.12
2023-05-18T02:31:14.076Z,74.35
2023-05-18T02:33:40.749Z,72.50
2023-05-18T02:36:12.358Z,72.94
2023-05-18T02:38:43.949Z,72.59
2023-05-18T02:41:11.187Z,73.88
2023-05-18T02:43:37.648Z,74.05
2023-05-18T02:46:04.702Z,73.23
2023-05-18T02:48:31.308Z,73.18
2023-05-18T02:50:58.753Z,72.64
2023-05-18T02:53:26.421Z,73.13
2023-05-18T02:55:58.514Z,73.38
2023-05-18T02:58:25.651Z,73.14
2023-05-18T03:00:55.201Z,72.99
2023-05-18T03:03:23.802Z,74.61
2023-05-18T03:05:52.855Z,74.22
2023-05-18T03:08:20.686Z,74.61
2023-05-18T03:10:47.114Z,74.32
2023-05-18T03:13:13.686Z,74.74
2023-05-18T03:15:40.573Z,73.76
2023-05-18T03:18:07.068Z,74.81
2023-05-18T03:20:35.051Z,75.14
2023-05-18T03:23:01.516Z,75.80
2023-05-18T03:25:28.004Z,76.48
2023-05-18T03:27:54.491Z,76.79
2023-05-18T03:30:20.952Z,76.32
2023-05-18T03:32:48.063Z,75.18
2023-05-18T03:35:15.130Z,76.14
2023-05-18T03:37:42.114Z,75.65
2023-05-18T03:40:16.170Z,74.91
2023-05-18T03:42:43.378Z,75.96
2023-05-18T03:45:10.593Z,76.56
2023-05-18T03:47:38.128Z,76.08
2023-05-18T03:50:05.410Z,77.32
2023-05-18T03:52:34.085Z,76.56
2023-05-18T03:55:04.110Z,77.65
2023-05-18T03:57:31.727Z,77.18
2023-05-18T03:59:59.030Z,77.39
2023-05-18T04:02:26.068Z,77.20
2023-05-18T04:04:54.057Z,77.12
2023-05-18T04:07:24.215Z,76.51
2023-05-18T04:09:55.577Z,77.00
2023-05-18T04:12:22.318Z,77.13
2023-05-18T04:14:50.004Z,76.44
2023-05-18T04:17:23.222Z,76.39
2023-05-18T04:19:50.508Z,76.50
2023-05-18T04:22:17.186Z,77.66
2023-05-18T04:24:45.684Z,77.55
2023-05-18T04:27:12.315Z,77.32
2023-05-18T04:29:40.113Z,76.05
2023-05-18T04:32:07.851Z,75.67
2023-05-18T04:34:37.970Z,75.91
2023-05-18T04:37:07.719Z,76.19
2023-05-18T04:39:35.088Z,76.67
2023-05-18T04:42:04.444Z,76.01
2023-05-18T04:44:34.075Z,74.43
2023-05-18T04:47:01.046Z,75.01
2023-05-18T04:49:28.164Z,75.11
2023-05-18T04:51:56.563Z,76.01
2023-05-18T04:54:24.341Z,74.86
2023-05-18T04:56:51.921Z,74.09
2023-05-18T04:59:19.054Z,74.30
2023-05-18T05:01:46.357Z,74.41
2023-05-18T05:04:13.271Z,74.81
2023-05-18T05:06:39.801Z,73.60
2023-05-18T05:09:06.291Z,73.80
2023-05-18T05:11:32.859Z,73.37
2023-05-18T05:13:59.379Z,72.77
2023-05-18T05:16:26.046Z,73.29
2023-05-18T05:18:52.685Z,72.38
2023-05-18T05:21:19.231Z,73.03
2023-05-18T05:23:45.767Z,72.52
2023-05-18T05:26:12.240Z,71.94
2023-05-18T05:28:38.768Z,70.76
2023-05-18T05:31:05.280Z,71.50
2023-05-18T05:33:31.943Z,72.70
2023-05-18T05:35:58.397Z,71.91
2023-05-18T05:38:24.932Z,71.87
2023-05-18T05:40:51.426Z,72.08
2023-05-18T05:43:17.896Z,71.82
2023-05-18T05:45:44.488Z,71.77
2023-05-18T05:48:13.489Z,72.20
2023-05-18T05:50:40.426Z,71.72
2023-05-18T05:53:07.020Z,71.26
2023-05-18T05:55:33.641Z,71.52
2023-05-18T05:58:00.254Z,71.68
2023-05-18T06:00:28.730Z,72.31
2023-05-18T06:02:55.274Z,70.15
2023-05-18T06:05:21.828Z,70.39
2023-05-18T06:07:48.312Z,71.49
2023-05-18T06:10:14.781Z,70.17
2023-05-18T06:12:41.578Z,69.84
2023-05-18T06:15:08.739Z,69.42
2023-05-18T06:17:35.269Z,70.08
2023-05-18T06:20:01.824Z,69.54
2023-05-18T06:22:28.272Z,70.13
2023-05-18T06:24:54.705Z,68.98
2023-05-18T06:27:21.257Z,68.35
2023-05-18T06:29:47.716Z,69.02
2023-05-18T06:32:14.341Z,67.96
2023-05-18T06:34:41.012Z,68.34
2023-05-18T06:37:07.517Z,67.65
2023-05-18T06:39:33.988Z,68.06
2023-05-18T06:42:00.428Z,67.71
2023-05-18T06:44:26.884Z,67.77
2023-05-18T06:46:53.371Z,67.81
2023-05-18T06:49:19.893Z,66.08
2023-05-18T06:51:46.359Z,65.52
2023-05-18T06:54:14.041Z,67.43
2023-05-18T06:56:40.494Z,65.27
2023-05-18T06:59:06.920Z,65.69
2023-05-18T07:01:33.768Z,64.76
2023-05-18T07:04:00.397Z,63.89
2023-05-18T07:06:27.006Z,61.85
2023-05-18T07:08:53.509Z,60.82
2023-05-18T07:11:20.070Z,61.53
2023-05-18T07:13:46.552Z,60.35
2023-05-18T07:16:13.066Z,62.27
2023-05-18T07:18:39.809Z,60.50
2023-05-18T07:21:06.302Z,60.91
2023-05-18T07:23:32.992Z,61.49
2023-05-18T07:25:59.772Z,59.30
2023-05-18T07:28:26.305Z,60.89
2023-05-18T07:30:52.842Z,58.74
2023-05-18T07:33:19.382Z,59.29
2023-05-18T07:35:46.016Z,56.56
2023-05-18T07:38:12.454Z,56.46
2023-05-18T07:40:39.009Z,58.61
2023-05-18T07:43:05.447Z,55.76
2023-05-18T07:45:32.428Z,57.26
2023-05-18T07:48:00.396Z,56.10
2023-05-18T07:50:27.087Z,57.31
2023-05-18T07:52:53.574Z,57.08
2023-05-18T07:55:20.017Z,58.32
2023-05-18T07:57:46.536Z,57.77
2023-05-18T08:00:13.572Z,58.36
2023-05-18T08:02:40.485Z,57.75
2023-05-18T08:05:08.414Z,57.70
2023-05-18T08:07:34.876Z,56.05
2023-05-18T08:10:01.424Z,57.08
2023-05-18T08:12:29.819Z,55.96
2023-05-18T08:14:56.974Z,55.40
2023-05-18T08:17:23.460Z,54.73
2023-05-18T08:19:50.751Z,56.41
2023-05-18T08:22:17.207Z,56.81
2023-05-18T08:24:44.894Z,53.02
2023-05-18T08:27:11.530Z,54.89
2023-05-18T08:29:38.086Z,52.35
2023-05-18T08:32:08.147Z,53.29
2023-05-18T08:34:35.012Z,54.10
2023-05-18T08:37:01.545Z,54.18
2023-05-18T08:39:31.636Z,53.53
2023-05-18T08:42:03.659Z,53.58
2023-05-18T08:44:45.396Z,54.25
2023-05-18T08:47:14.385Z,54.22
2023-05-18T08:49:42.534Z,53.17
2023-05-18T08:52:11.304Z,52.82
2023-05-18T08:54:37.873Z,53.69
2023-05-18T08:57:11.480Z,52.57
2023-05-18T08:59:42.029Z,54.55
2023-05-18T09:02:08.695Z,55.28
2023-05-18T09:04:35.702Z,54.39
2023-05-18T09:07:04.136Z,54.74
2023-05-18T09:09:31.884Z,53.31
2023-05-18T09:11:59.253Z,54.25
2023-05-18T09:14:26.704Z,53.70
2023-05-18T09:16:53.704Z,53.63
2023-05-18T09:19:20.395Z,52.63
2023-05-18T09:21:47.250Z,53.45
2023-05-18T09:24:13.948Z,54.92
2023-05-18T09:26:40.730Z,54.35
2023-05-18T09:29:18.570Z,54.31
2023-05-18T09:31:46.567Z,54.14
2023-05-18T09:34:14.229Z,53.86
2023-05-18T09:36:42.478Z,53.45
2023-05-18T09:39:12.611Z,53.10
2023-05-18T09:41:39.964Z,53.48
2023-05-18T09:44:09.524Z,52.93
2023-05-18T09:49:05.107Z,51.84
2023-05-18T09:51:35.583Z,51.99
2023-05-18T09:54:05.089Z,50.79
2023-05-18T09:56:34.804Z,52.88
2023-05-18T09:59:08.891Z,52.92
2023-05-18T10:01:35.654Z,52.79
2023-05-18T10:04:06.225Z,52.16
2023-05-18T10:06:32.819Z,52.11
2023-05-18T10:09:02.006Z,51.84
2023-05-18T10:11:32.127Z,51.94
2023-05-18T10:13:58.710Z,51.31
2023-05-18T10:16:25.765Z,50.36
2023-05-18T10:18:54.309Z,49.88
2023-05-18T10:21:24.531Z,50.04
2023-05-18T10:23:52.339Z,49.25
2023-05-18T10:26:22.793Z,50.86
2023-05-18T10:28:51.576Z,49.14
2023-05-18T10:31:19.750Z,50.95
2023-05-18T10:33:46.406Z,50.18
2023-05-18T10:36:13.318Z,50.88
2023-05-18T10:38:43.370Z,50.21
2023-05-18T10:41:12.310Z,50.04
2023-05-18T10:43:41.429Z,49.89
2023-05-18T10:46:08.853Z,48.13
2023-05-18T10:48:39.444Z,49.49
2023-05-18T10:51:08.050Z,52.29
2023-05-18T10:53:36.351Z,53.50
2023-05-18T10:56:03.043Z,51.22
2023-05-18T10:58:31.168Z,50.36
2023-05-18T11:01:00.211Z,47.89
2023-05-18T11:03:28.430Z,48.91
2023-05-18T11:06:10.506Z,50.12
2023-05-18T11:08:51.099Z,48.28
2023-05-18T11:11:19.556Z,48.84
2023-05-18T11:13:50.603Z,48.11
2023-05-18T11:16:19.897Z,49.63
2023-05-18T11:18:51.649Z,49.93
2023-05-18T11:21:24.019Z,49.60
2023-05-18T11:24:17.799Z,49.27
2023-05-18T11:26:55.705Z,50.39
2023-05-18T11:29:35.106Z,50.18
2023-05-18T11:32:02.700Z,49.16
2023-05-18T11:34:46.265Z,50.97
2023-05-18T11:37:17.438Z,48.92
2023-05-18T11:40:00.056Z,49.77
2023-05-18T11:42:35.200Z,49.94
2023-05-18T11:45:13.004Z,49.47
2023-05-18T11:47:42.977Z,48.38
2023-05-18T11:50:12.083Z,47.61
2023-05-18T11:52:49.708Z,47.04
2023-05-18T11:55:19.181Z,48.06
2023-05-18T11:57:50.099Z,48.32
2023-05-18T12:00:17.251Z,49.33
2023-05-18T12:02:46.458Z,49.25
2023-05-18T12:05:14.369Z,47.74
2023-05-18T12:07:41.743Z,48.17
2023-05-18T12:10:10.376Z,48.62
2023-05-18T12:12:37.521Z,48.83
2023-05-18T12:15:06.219Z,49.02
2023-05-18T12:17:42.644Z,48.12
2023-05-18T12:20:14.421Z,47.75
2023-05-18T12:22:42.903Z,47.14
2023-05-18T12:25:09.862Z,47.09
2023-05-18T12:27:41.068Z,47.20
2023-05-18T12:30:12.267Z,47.16
2023-05-18T12:32:39.099Z,46.36
2023-05-18T12:35:08.872Z,47.74
2023-05-18T12:37:46.099Z,47.86
2023-05-18T12:40:15.161Z,46.89
2023-05-18T12:43:01.221Z,47.58
2023-05-18T12:45:31.897Z,47.83
2023-05-18T12:48:06.196Z,48.44
2023-05-18T12:50:33.147Z,47.43
2023-05-18T12:53:01.605Z,46.99
2023-05-18T12:55:30.734Z,47.07
2023-05-18T12:58:02.312Z,47.45
2023-05-18T13:00:36.333Z,49.86
2023-05-18T13:03:07.440Z,48.67
2023-05-18T13:05:34.245Z,47.10
2023-05-18T13:08:01.020Z,46.83
2023-05-18T13:10:31.249Z,48.79
2023-05-18T13:13:03.133Z,49.16
2023-05-18T13:15:37.232Z,47.35
2023-05-18T13:18:07.010Z,47.88
2023-05-18T13:20:50.922Z,47.69
2023-05-18T13:23:19.173Z,47.36
2023-05-18T13:25:48.709Z,45.35
2023-05-18T13:28:17.988Z,46.30
2023-05-18T13:30:45.635Z,46.19
2023-05-18T13:33:12.323Z,47.58
2023-05-18T13:35:41.841Z,46.19
2023-05-18T13:38:13.209Z,46.49
2023-05-18T13:40:41.158Z,46.52
2023-05-18T13:43:08.703Z,44.95
2023-05-18T13:45:36.294Z,45.20
2023-05-18T13:48:09.560Z,46.33
2023-05-18T13:50:36.694Z,47.55
2023-05-18T13:53:03.289Z,48.71
2023-05-18T13:55:30.010Z,49.18
2023-05-18T13:57:56.887Z,46.90
2023-05-18T14:00:23.434Z,46.04
2023-05-18T14:02:50.003Z,46.77
2023-05-18T14:05:16.601Z,46.10
2023-05-18T14:07:44.074Z,47.11
2023-05-18T14:10:12.316Z,47.12
2023-05-18T14:12:39.588Z,47.36
2023-05-18T14:15:06.635Z,47.74
2023-05-18T14:17:34.397Z,47.43
2023-05-18T14:20:01.227Z,47.16
2023-05-18T14:22:27.670Z,46.58
2023-05-18T14:24:54.258Z,50.14
2023-05-18T14:27:20.767Z,49.21
2023-05-18T14:29:47.914Z,48.50
2023-05-18T14:32:14.444Z,47.34
2023-05-18T14:34:41.085Z,48.11
2023-05-18T14:37:07.657Z,47.81
2023-05-18T14:39:34.442Z,46.98
2023-05-18T14:42:01.125Z,47.30
2023-05-18T14:44:27.572Z,47.97
2023-05-18T14:46:54.140Z,47.60
2023-05-18T14:49:20.727Z,46.70
2023-05-18T14:51:47.177Z,47.42
2023-05-18T14:54:14.119Z,47.34
2023-05-18T14:56:40.993Z,48.25
2023-05-18T14:59:07.510Z,48.55
2023-05-18T15:01:34.034Z,49.27
2023-05-18T15:04:00.683Z,49.57
2023-05-18T15:06:28.692Z,49.25
2023-05-18T15:08:55.166Z,48.31
2023-05-18T15:11:22.720Z,47.75
2023-05-18T15:13:49.812Z,48.88
2023-05-18T15:16:19.433Z,49.88
2023-05-18T15:18:46.718Z,48.76
2023-05-18T15:21:13.306Z,47.64
2023-05-18T15:23:39.802Z,46.55
2023-05-18T15:26:08.735Z,46.68
2023-05-18T15:28:35.655Z,48.40
2023-05-18T15:31:02.142Z,46.28
2023-05-18T15:33:28.660Z,46.36
2023-05-18T15:35:55.257Z,47.62
2023-05-18T15:38:21.709Z,48.02
2023-05-18T15:40:48.219Z,47.00
2023-05-18T15:43:14.670Z,46.39
2023-05-18T15:45:41.404Z,45.57
2023-05-18T15:48:08.073Z,46.90
2023-05-18T15:50:34.583Z,47.99
2023-05-18T15:53:01.050Z,47.72
2023-05-18T15:55:28.046Z,46.35
2023-05-18T15:57:54.493Z,46.33
2023-05-18T16:00:23.615Z,45.71
2023-05-18T16:02:50.225Z,46.15
2023-05-18T16:05:16.915Z,46.49
2023-05-18T16:07:43.720Z,48.20
2023-05-18T16:10:10.526Z,48.10
2023-05-18T16:12:37.028Z,47.46
2023-05-18T16:15:03.667Z,47.10
2023-05-18T16:17:30.261Z,46.91
2023-05-18T16:19:56.713Z,50.16
2023-05-18T16:22:23.167Z,47.47
2023-05-18T16:24:49.746Z,47.79
2023-05-18T16:27:16.242Z,47.20
2023-05-18T16:29:42.804Z,46.60
2023-05-18T16:32:09.310Z,48.10
2023-05-18T16:34:35.762Z,46.29
2023-05-18T16:37:02.354Z,47.77
2023-05-18T16:39:28.777Z,48.59
2023-05-18T16:41:55.408Z,47.63
2023-05-18T16:44:21.934Z,46.60
2023-05-18T16:46:48.449Z,45.38
2023-05-18T16:49:14.990Z,46.77
2023-05-18T16:51:41.621Z,45.67
2023-05-18T16:54:08.206Z,47.01
2023-05-18T16:56:35.771Z,47.42
2023-05-18T16:59:03.014Z,45.66
2023-05-18T17:01:30.803Z,45.83
2023-05-18T17:03:57.618Z,46.56
2023-05-18T17:06:25.406Z,48.07
2023-05-18T17:08:57.346Z,47.80
2023-05-18T17:11:26.136Z,45.95
2023-05-18T17:13:52.737Z,48.16
2023-05-18T17:16:21.498Z,49.79
2023-05-18T17:18:48.795Z,48.04
2023-05-18T17:21:15.910Z,47.53
2023-05-18T17:23:42.417Z,47.45
2023-05-18T17:26:08.973Z,46.21
2023-05-18T17:28:35.805Z,47.40
2023-05-18T17:31:02.390Z,47.65
2023-05-18T17:33:28.980Z,47.52
2023-05-18T17:35:55.738Z,48.55
2023-05-18T17:38:22.618Z,51.71
2023-05-18T17:40:49.243Z,49.16
2023-05-18T17:43:15.696Z,48.38
2023-05-18T17:45:42.184Z,48.73
2023-05-18T17:48:08.999Z,49.48
2023-05-18T17:50:37.614Z,52.04
2023-05-18T17:53:04.852Z,50.58
2023-05-18T17:55:31.699Z,49.28
2023-05-18T17:58:00.878Z,48.31
2023-05-18T18:00:27.412Z,48.85
2023-05-18T18:02:55.190Z,48.29
2023-05-18T18:05:22.217Z,48.03
2023-05-18T18:07:48.905Z,49.98
2023-05-18T18:10:15.495Z,51.49
2023-05-18T18:12:41.997Z,50.85
2023-05-18T18:15:09.063Z,48.67
2023-05-18T18:17:35.704Z,48.20
2023-05-18T18:20:02.501Z,49.79
2023-05-18T18:22:28.980Z,51.95
2023-05-18T18:24:55.554Z,48.78
2023-05-18T18:27:22.153Z,51.45
2023-05-18T18:29:49.302Z,48.84
2023-05-18T18:32:15.843Z,54.15
2023-05-18T18:34:42.554Z,56.00
2023-05-18T18:37:09.124Z,54.93
2023-05-18T18:39:35.743Z,57.75
2023-05-18T18:42:02.436Z,56.06
2023-05-18T18:44:28.885Z,56.00
2023-05-18T18:46:55.554Z,57.75
2023-05-18T18:49:22.164Z,61.04
2023-05-18T18:51:48.696Z,57.43
2023-05-18T18:54:15.228Z,59.75
2023-05-18T18:56:43.904Z,61.94
2023-05-18T18:59:10.514Z,61.02
2023-05-18T19:01:37.209Z,62.28
2023-05-18T19:04:04.342Z,63.40
2023-05-18T19:06:32.020Z,64.78
2023-05-18T19:08:58.511Z,63.21
2023-05-18T19:11:25.100Z,63.42
2023-05-18T19:13:51.656Z,64.34
2023-05-18T19:16:18.520Z,64.84
2023-05-18T19:18:45.350Z,65.77
2023-05-18T19:21:11.953Z,66.55
2023-05-18T19:23:38.435Z,64.98
2023-05-18T19:26:05.062Z,61.54
2023-05-18T19:28:31.646Z,64.18
2023-05-18T19:30:58.216Z,65.45
2023-05-18T19:33:24.696Z,64.69
2023-05-18T19:35:52.766Z,65.20
2023-05-18T19:38:19.472Z,65.17
2023-05-18T19:40:46.051Z,64.65
2023-05-18T19:43:12.524Z,65.76
2023-05-18T19:45:39.502Z,65.72
2023-05-18T19:48:06.220Z,65.59
2023-05-18T19:50:32.785Z,66.90
2023-05-18T19:52:59.265Z,62.70
2023-05-18T19:55:25.950Z,62.75
2023-05-18T19:57:52.376Z,62.21
2023-05-18T20:00:18.965Z,61.98
2023-05-18T20:02:45.581Z,61.28
2023-05-18T20:05:13.089Z,63.04
2023-05-18T20:07:39.697Z,62.40
2023-05-18T20:10:06.656Z,62.09
2023-05-18T20:12:33.168Z,61.96
2023-05-18T20:14:59.845Z,62.35
2023-05-18T20:17:27.077Z,61.46
2023-05-18T20:19:53.658Z,62.99
2023-05-18T20:22:20.334Z,62.64
2023-05-18T20:24:46.996Z,63.37
2023-05-18T20:27:14.529Z,65.17
2023-05-18T20:29:41.454Z,65.16
2023-05-18T20:32:08.003Z,64.86
2023-05-18T20:34:34.907Z,64.36
2023-05-18T20:37:01.724Z,64.38
2023-05-18T20:39:28.938Z,64.45
2023-05-18T20:41:57.624Z,65.14
2023-05-18T20:44:27.786Z,66.04
2023-05-18T20:46:54.318Z,64.09
2023-05-18T20:49:26.881Z,64.73
2023-05-18T20:51:53.403Z,63.80
2023-05-18T20:54:21.391Z,64.97
2023-05-18T20:56:48.526Z,66.52
2023-05-18T20:59:16.146Z,65.48
2023-05-18T21:01:42.926Z,64.33
2023-05-18T21:04:12.569Z,64.30
2023-05-18T21:06:40.835Z,64.73
2023-05-18T21:09:08.051Z,64.61
2023-05-18T21:11:34.933Z,66.01
2023-05-18T21:14:01.514Z,65.70
2023-05-18T21:16:28.031Z,64.97
2023-05-18T21:18:54.565Z,64.61
2023-05-18T21:21:21.941Z,66.49
2023-05-18T21:23:48.953Z,65.63
2023-05-18T21:26:15.572Z,65.46
2023-05-18T21:28:42.236Z,66.12
2023-05-18T21:31:08.696Z,66.61
2023-05-18T21:33:35.261Z,64.98
2023-05-18T21:36:01.756Z,65.69
2023-05-18T21:38:28.487Z,65.67
2023-05-18T21:40:56.384Z,64.61
2023-05-18T21:43:23.754Z,64.85
2023-05-18T21:45:50.520Z,65.55
2023-05-18T21:48:17.042Z,65.46
2023-05-18T21:50:43.543Z,64.79
2023-05-18T21:53:10.040Z,65.03
2023-05-18T21:55:36.658Z,66.62
2023-05-18T21:58:03.172Z,65.20
2023-05-18T22:00:29.890Z,65.01
2023-05-18T22:02:56.624Z,66.00
2023-05-18T22:05:23.134Z,67.21
2023-05-18T22:07:49.799Z,66.24
2023-05-18T22:10:17.924Z,66.71
2023-05-18T22:12:44.690Z,67.21
2023-05-18T22:15:11.525Z,67.93
2023-05-18T22:17:39.156Z,66.77
2023-05-18T22:20:11.072Z,66.03
2023-05-18T22:22:38.001Z,67.26
2023-05-18T22:25:04.708Z,66.27
2023-05-18T22:27:31.474Z,67.86
2023-05-18T22:29:57.944Z,66.39
2023-05-18T22:32:24.790Z,67.27
2023-05-18T22:34:51.871Z,67.46
2023-05-18T22:37:18.315Z,67.45
2023-05-18T22:39:44.750Z,67.07
2023-05-18T22:42:11.253Z,67.93
2023-05-18T22:44:37.699Z,67.65
2023-05-18T22:47:04.303Z,67.91
2023-05-18T22:49:31.048Z,67.13
2023-05-18T22:51:57.505Z,66.79
2023-05-18T22:54:23.953Z,67.16
2023-05-18T22:56:50.457Z,67.76
2023-05-18T22:59:17.033Z,65.90
2023-05-18T23:01:43.515Z,66.41
2023-05-18T23:04:10.069Z,67.52
2023-05-18T23:06:36.561Z,67.69
2023-05-18T23:09:03.103Z,67.54
2023-05-18T23:11:30.924Z,67.56
2023-05-18T23:14:02.478Z,68.24
2023-05-18T23:16:29.757Z,67.25
2023-05-18T23:19:01.626Z,68.07
2023-05-18T23:21:28.428Z,68.40
2023-05-18T23:23:55.591Z,66.89
2023-05-18T23:26:22.763Z,68.12
2023-05-18T23:28:49.615Z,69.05
2023-05-18T23:31:16.370Z,69.29
2023-05-18T23:33:43.210Z,70.60
2023-05-18T23:36:11.769Z,71.25
2023-05-18T23:38:40.950Z,70.95
2023-05-18T23:41:08.400Z,69.43
2023-05-18T23:43:35.355Z,70.48
2023-05-18T23:46:02.209Z,69.54
2023-05-18T23:48:32.214Z,70.43
2023-05-18T23:51:01.584Z,69.33
2023-05-18T23:53:32.692Z,70.46
2023-05-18T23:56:00.125Z,70.53
2023-05-18T23:58:31.655Z,70.84
